Time;durP1;ratioP1;P1;durP2;ratioP2;P2;SDS_P1;SDS_P2;PMS_P1;PMS_P2;Temp;Humidity;BMP_temperature;BMP_pressure;BME280_temperature;BME280_humidity;BME280_pressure;Samples;Min_cycle;Max_cycle;Signal;HPM_P1;HPM_P2
2023/07/25 00:00:33;;;;;;;8.13;3.13;;;;;;;;;;5080077;28;20027;-79
2023/07/25 00:02:58;;;;;;;8.77;3.55;;;;;;;;;;5059013;28;20074;-79
2023/07/25 00:05:23;;;;;;;9.63;3.33;;;;;;;;;;5052918;28;20125;-79
2023/07/25 00:07:49;;;;;;;15.40;3.50;;;;;;;;;;5079678;28;20032;-79
2023/07/25 00:10:15;;;;;;;6.03;3.03;;;;;;;;;;5079024;28;20024;-79
2023/07/25 00:12:40;;;;;;;8.82;2.95;;;;;;;;;;5080290;28;20020;-79
2023/07/25 00:15:06;;;;;;;5.88;2.80;;;;;;;;;;5060891;28;20036;-79
2023/07/25 00:17:31;;;;;;;10.90;2.70;;;;;;;;;;5059135;28;20032;-79
2023/07/25 00:19:57;;;;;;;5.35;3.45;;;;;;;;;;5063705;28;20039;-79
2023/07/25 00:22:22;;;;;;;8.30;4.03;;;;;;;;;;5067256;28;20016;-79
2023/07/25 00:24:48;;;;;;;11.23;4.10;;;;;;;;;;5061236;28;20040;-79
2023/07/25 00:27:13;;;;;;;7.30;3.25;;;;;;;;;;5059002;28;20025;-80
2023/07/25 00:29:38;;;;;;;5.53;3.05;;;;;;;;;;5074187;28;20134;-79
2023/07/25 00:32:04;;;;;;;6.65;3.10;;;;;;;;;;5079115;28;20028;-80
2023/07/25 00:34:29;;;;;;;13.68;3.30;;;;;;;;;;5078004;28;20024;-79
2023/07/25 00:36:54;;;;;;;7.90;3.70;;;;;;;;;;5079043;28;20038;-79
2023/07/25 00:39:20;;;;;;;7.40;3.55;;;;;;;;;;5062293;28;20074;-79
2023/07/25 00:41:45;;;;;;;9.00;3.75;;;;;;;;;;5079256;28;20040;-79
2023/07/25 00:44:10;;;;;;;8.85;3.55;;;;;;;;;;5062190;28;20035;-79
2023/07/25 00:46:36;;;;;;;12.10;3.08;;;;;;;;;;5097420;28;20024;-80
2023/07/25 00:49:01;;;;;;;9.23;3.30;;;;;;;;;;5077902;28;20024;-79
2023/07/25 00:51:29;;;;;;;12.32;4.18;;;;;;;;;;5079007;28;20035;-79
2023/07/25 00:53:55;;;;;;;11.75;3.25;;;;;;;;;;5078413;28;20085;-79
2023/07/25 00:56:21;;;;;;;7.32;3.05;;;;;;;;;;5078540;28;20431;-79
2023/07/25 00:58:46;;;;;;;11.90;3.67;;;;;;;;;;5078847;28;20542;-79
2023/07/25 01:01:11;;;;;;;6.82;3.60;;;;;;;;;;5071305;28;20024;-79
2023/07/25 01:03:38;;;;;;;9.35;3.45;;;;;;;;;;5075041;28;20111;-79
2023/07/25 01:06:05;;;;;;;8.70;3.30;;;;;;;;;;5068453;28;20394;-79
2023/07/25 01:08:31;;;;;;;11.30;3.55;;;;;;;;;;5057863;28;20020;-79
2023/07/25 01:10:56;;;;;;;12.88;3.53;;;;;;;;;;5061028;28;20035;-79
2023/07/25 01:13:22;;;;;;;6.53;3.53;;;;;;;;;;5078468;28;20031;-79
2023/07/25 01:15:53;;;;;;;8.65;2.92;;;;;;;;;;5095747;28;20408;-80
2023/07/25 01:18:19;;;;;;;8.80;3.33;;;;;;;;;;5078621;28;20027;-79
2023/07/25 01:20:46;;;;;;;8.35;3.72;;;;;;;;;;5077960;28;20447;-79
2023/07/25 01:23:12;;;;;;;9.40;3.50;;;;;;;;;;5077930;28;20016;-79
2023/07/25 01:25:37;;;;;;;7.45;3.97;;;;;;;;;;5078198;28;20028;-79
2023/07/25 01:28:03;;;;;;;7.68;3.70;;;;;;;;;;5061430;28;20069;-80
2023/07/25 01:30:28;;;;;;;9.77;3.70;;;;;;;;;;5078165;28;20024;-80
2023/07/25 01:32:54;;;;;;;7.75;3.65;;;;;;;;;;5077576;28;20047;-79
2023/07/25 01:35:19;;;;;;;16.60;3.92;;;;;;;;;;5061290;28;20058;-79
2023/07/25 01:37:44;;;;;;;9.60;3.70;;;;;;;;;;5061538;28;20032;-79
2023/07/25 01:40:10;;;;;;;5.57;3.05;;;;;;;;;;5060948;28;20027;-79
2023/07/25 01:42:36;;;;;;;6.13;3.15;;;;;;;;;;5095363;28;20070;-79
2023/07/25 01:45:01;;;;;;;14.68;4.13;;;;;;;;;;5077629;28;20035;-79
2023/07/25 01:47:26;;;;;;;8.35;3.53;;;;;;;;;;5096083;28;20032;-79
2023/07/25 01:49:52;;;;;;;14.52;3.92;;;;;;;;;;5077732;28;20024;-79
2023/07/25 01:52:18;;;;;;;12.00;3.33;;;;;;;;;;5076947;28;20524;-79
2023/07/25 01:54:43;;;;;;;7.65;3.15;;;;;;;;;;5095689;28;20107;-79
2023/07/25 01:57:09;;;;;;;10.18;3.55;;;;;;;;;;5077292;28;20024;-79
2023/07/25 01:59:34;;;;;;;8.02;3.17;;;;;;;;;;5077368;28;20394;-79
2023/07/25 02:01:59;;;;;;;7.65;3.40;;;;;;;;;;5073749;28;20031;-79
2023/07/25 02:04:25;;;;;;;6.13;3.90;;;;;;;;;;5057654;28;20111;-79
2023/07/25 02:06:50;;;;;;;9.15;3.40;;;;;;;;;;5040686;28;20024;-79
2023/07/25 02:09:15;;;;;;;6.40;3.85;;;;;;;;;;5047581;28;20038;-79
2023/07/25 02:11:40;;;;;;;6.22;3.08;;;;;;;;;;5077305;28;20097;-79
2023/07/25 02:14:06;;;;;;;7.95;4.07;;;;;;;;;;5094550;28;20047;-79
2023/07/25 02:16:33;;;;;;;10.57;3.60;;;;;;;;;;5087479;28;20026;-79
2023/07/25 02:18:59;;;;;;;8.45;4.45;;;;;;;;;;5071858;28;20112;-79
2023/07/25 02:21:24;;;;;;;9.13;3.88;;;;;;;;;;5059887;28;20461;-80
2023/07/25 02:23:49;;;;;;;9.00;3.65;;;;;;;;;;5077139;28;20035;-79
2023/07/25 02:26:14;;;;;;;8.38;3.55;;;;;;;;;;5077015;28;20012;-79
2023/07/25 02:28:40;;;;;;;7.85;3.92;;;;;;;;;;5060408;28;20485;-79
2023/07/25 02:31:05;;;;;;;8.45;3.88;;;;;;;;;;5076531;28;20016;-79
2023/07/25 02:33:30;;;;;;;10.73;4.03;;;;;;;;;;5077195;28;20095;-79
2023/07/25 02:35:55;;;;;;;7.80;4.03;;;;;;;;;;5076325;28;20111;-79
2023/07/25 02:38:21;;;;;;;9.10;3.75;;;;;;;;;;5077111;28;20024;-79
2023/07/25 02:40:46;;;;;;;8.43;4.13;;;;;;;;;;5094990;28;20542;-79
2023/07/25 02:43:11;;;;;;;6.55;3.83;;;;;;;;;;5077093;28;20439;-79
2023/07/25 02:45:37;;;;;;;12.27;4.28;;;;;;;;;;5060335;28;20035;-79
2023/07/25 02:48:02;;;;;;;10.73;4.38;;;;;;;;;;5094472;28;20112;-79
2023/07/25 02:50:28;;;;;;;10.30;4.10;;;;;;;;;;5094940;28;20050;-79
2023/07/25 02:52:53;;;;;;;9.48;3.83;;;;;;;;;;5076921;28;20024;-79
2023/07/25 02:55:18;;;;;;;16.67;4.57;;;;;;;;;;5076280;28;20099;-79
2023/07/25 02:57:44;;;;;;;13.43;4.43;;;;;;;;;;5056187;28;20028;-79
2023/07/25 03:00:09;;;;;;;9.95;3.90;;;;;;;;;;5057051;28;20036;-79
2023/07/25 03:02:35;;;;;;;12.13;3.45;;;;;;;;;;5075071;28;20044;-78
2023/07/25 03:05:00;;;;;;;6.70;3.28;;;;;;;;;;5057053;28;20021;-79
2023/07/25 03:07:25;;;;;;;7.60;4.15;;;;;;;;;;5074177;28;20032;-79
2023/07/25 03:09:51;;;;;;;12.40;3.95;;;;;;;;;;5074812;28;20544;-79
2023/07/25 03:12:16;;;;;;;13.73;4.03;;;;;;;;;;5068107;28;20024;-78
2023/07/25 03:14:42;;;;;;;10.15;4.20;;;;;;;;;;5094883;28;20028;-79
2023/07/25 03:17:07;;;;;;;16.20;4.50;;;;;;;;;;5077088;28;20028;-79
2023/07/25 03:19:32;;;;;;;9.05;3.42;;;;;;;;;;5094547;28;20020;-79
2023/07/25 03:21:57;;;;;;;10.75;3.97;;;;;;;;;;5095771;28;20078;-79
2023/07/25 03:24:23;;;;;;;8.57;4.13;;;;;;;;;;5077296;28;20050;-79
2023/07/25 03:26:48;;;;;;;10.40;3.85;;;;;;;;;;5094776;28;20485;-79
2023/07/25 03:29:13;;;;;;;9.10;4.30;;;;;;;;;;5077288;28;20020;-79
2023/07/25 03:31:39;;;;;;;8.98;3.47;;;;;;;;;;5076836;28;20077;-79
2023/07/25 03:34:04;;;;;;;7.00;3.67;;;;;;;;;;5094719;28;20082;-79
2023/07/25 03:36:29;;;;;;;5.53;3.72;;;;;;;;;;5076641;28;20023;-79
2023/07/25 03:38:54;;;;;;;10.70;3.78;;;;;;;;;;5094212;28;20038;-79
2023/07/25 03:41:20;;;;;;;7.22;3.13;;;;;;;;;;5076859;28;20028;-79
2023/07/25 03:43:45;;;;;;;6.13;3.05;;;;;;;;;;5060138;28;20073;-79
2023/07/25 03:46:10;;;;;;;7.78;3.22;;;;;;;;;;5076791;28;20028;-79
2023/07/25 03:48:36;;;;;;;4.32;2.92;;;;;;;;;;5094008;28;20475;-78
2023/07/25 03:51:01;;;;;;;3.88;2.85;;;;;;;;;;5060250;28;20467;-79
2023/07/25 03:53:26;;;;;;;7.45;3.00;;;;;;;;;;5095051;28;20024;-79
2023/07/25 03:55:52;;;;;;;4.25;2.72;;;;;;;;;;5076538;28;20532;-79
2023/07/25 03:58:17;;;;;;;4.53;2.75;;;;;;;;;;5076694;28;20020;-79
2023/07/25 04:00:42;;;;;;;3.95;2.45;;;;;;;;;;5076764;28;20020;-79
2023/07/25 04:03:08;;;;;;;10.52;3.22;;;;;;;;;;5059827;28;20016;-78
2023/07/25 04:05:33;;;;;;;5.57;3.50;;;;;;;;;;5059284;28;20515;-79
2023/07/25 04:07:59;;;;;;;8.32;3.20;;;;;;;;;;5095557;28;20085;-79
2023/07/25 04:10:25;;;;;;;7.35;2.95;;;;;;;;;;5080018;28;20108;-79
2023/07/25 04:12:50;;;;;;;6.38;3.95;;;;;;;;;;5080047;28;20052;-78
2023/07/25 04:15:15;;;;;;;5.90;3.58;;;;;;;;;;5079968;28;20435;-78
2023/07/25 04:17:41;;;;;;;10.35;3.92;;;;;;;;;;5063093;28;20039;-78
2023/07/25 04:20:07;;;;;;;10.30;4.85;;;;;;;;;;5078851;28;20027;-78
2023/07/25 04:22:32;;;;;;;6.22;3.83;;;;;;;;;;5097539;28;20065;-78
2023/07/25 04:24:57;;;;;;;13.60;4.63;;;;;;;;;;5097669;28;20032;-78
2023/07/25 04:27:23;;;;;;;8.07;4.28;;;;;;;;;;5097469;28;20477;-78
2023/07/25 04:29:48;;;;;;;6.55;3.60;;;;;;;;;;5080086;28;20046;-78
2023/07/25 04:32:13;;;;;;;8.63;3.90;;;;;;;;;;5079959;28;20024;-78
2023/07/25 04:34:39;;;;;;;8.18;3.63;;;;;;;;;;5096959;28;20028;-78
2023/07/25 04:37:04;;;;;;;7.60;3.83;;;;;;;;;;5062635;28;20028;-78
2023/07/25 04:39:30;;;;;;;7.45;3.70;;;;;;;;;;5096561;28;20031;-78
2023/07/25 04:41:55;;;;;;;12.35;4.45;;;;;;;;;;5096522;28;20024;-78
2023/07/25 04:44:20;;;;;;;10.35;4.93;;;;;;;;;;5079154;28;20016;-78
2023/07/25 04:46:45;;;;;;;12.20;4.47;;;;;;;;;;5096725;28;20103;-78
2023/07/25 04:49:14;;;;;;;8.52;4.63;;;;;;;;;;5077933;28;20439;-78
2023/07/25 04:51:39;;;;;;;11.50;4.57;;;;;;;;;;5079489;28;20089;-78
2023/07/25 04:54:05;;;;;;;15.70;5.28;;;;;;;;;;5079059;28;20473;-78
2023/07/25 04:56:30;;;;;;;7.85;4.40;;;;;;;;;;5078612;28;20102;-78
2023/07/25 04:58:56;;;;;;;10.32;3.95;;;;;;;;;;5078533;28;20036;-78
2023/07/25 05:01:21;;;;;;;10.95;4.45;;;;;;;;;;5078608;28;20023;-78
2023/07/25 05:03:46;;;;;;;12.02;3.83;;;;;;;;;;5096844;28;20111;-79
2023/07/25 05:06:12;;;;;;;17.38;4.32;;;;;;;;;;5096911;28;20073;-78
2023/07/25 05:08:37;;;;;;;9.55;4.05;;;;;;;;;;5078849;28;20027;-79
2023/07/25 05:11:02;;;;;;;13.00;3.78;;;;;;;;;;5077961;28;20065;-79
2023/07/25 05:13:28;;;;;;;11.40;3.70;;;;;;;;;;5078457;28;20032;-79
2023/07/25 05:15:53;;;;;;;9.75;4.25;;;;;;;;;;5078592;28;20030;-78
2023/07/25 05:18:18;;;;;;;9.82;3.47;;;;;;;;;;5061458;28;20037;-78
2023/07/25 05:20:44;;;;;;;9.55;4.95;;;;;;;;;;5095668;28;20032;-78
2023/07/25 05:23:10;;;;;;;12.02;3.90;;;;;;;;;;5096099;28;20020;-78
2023/07/25 05:25:35;;;;;;;7.60;4.13;;;;;;;;;;5078356;28;20531;-81
2023/07/25 05:28:00;;;;;;;6.90;3.88;;;;;;;;;;5086275;28;20048;-78
2023/07/25 05:30:25;;;;;;;11.52;3.65;;;;;;;;;;5066359;28;20023;-78
2023/07/25 05:32:51;;;;;;;12.80;3.50;;;;;;;;;;5073576;28;20036;-78
2023/07/25 05:35:17;;;;;;;8.25;3.08;;;;;;;;;;5053218;28;20052;-78
2023/07/25 05:37:42;;;;;;;6.90;3.58;;;;;;;;;;5057219;28;20108;-78
2023/07/25 05:40:08;;;;;;;7.97;3.50;;;;;;;;;;5075605;28;20059;-79
2023/07/25 05:42:34;;;;;;;9.88;3.85;;;;;;;;;;5068788;28;20013;-78
2023/07/25 05:44:59;;;;;;;14.10;3.92;;;;;;;;;;5057551;28;20021;-78
2023/07/25 05:47:25;;;;;;;10.85;4.43;;;;;;;;;;5057110;28;20024;-78
2023/07/25 05:49:51;;;;;;;9.50;3.63;;;;;;;;;;5060562;28;20153;-78
2023/07/25 05:52:16;;;;;;;5.20;3.50;;;;;;;;;;5077468;28;20024;-78
2023/07/25 05:54:43;;;;;;;7.47;3.20;;;;;;;;;;5095537;28;20030;-78
2023/07/25 05:57:08;;;;;;;8.85;3.15;;;;;;;;;;5076605;28;20392;-78
2023/07/25 05:59:33;;;;;;;7.10;2.85;;;;;;;;;;5095251;28;20020;-78
2023/07/25 06:01:59;;;;;;;9.07;3.40;;;;;;;;;;5077230;28;20016;-78
2023/07/25 06:04:24;;;;;;;4.00;2.70;;;;;;;;;;5077635;28;20058;-79
2023/07/25 06:06:49;;;;;;;6.70;2.53;;;;;;;;;;5078089;28;20469;-79
2023/07/25 06:09:15;;;;;;;6.22;2.88;;;;;;;;;;5059949;28;20031;-79
2023/07/25 06:11:40;;;;;;;5.75;2.78;;;;;;;;;;5077482;28;20164;-79
2023/07/25 06:14:06;;;;;;;8.80;3.00;;;;;;;;;;5061058;28;20016;-78
2023/07/25 06:16:31;;;;;;;6.47;2.95;;;;;;;;;;5077011;28;20505;-77
2023/07/25 06:18:56;;;;;;;7.57;2.78;;;;;;;;;;5076370;28;20028;-78
2023/07/25 06:21:22;;;;;;;5.00;2.42;;;;;;;;;;5073455;28;20040;-76
2023/07/25 06:23:47;;;;;;;4.60;2.53;;;;;;;;;;5065114;28;20020;-78
2023/07/25 06:26:12;;;;;;;8.23;2.55;;;;;;;;;;5067392;28;20113;-77
2023/07/25 06:28:37;;;;;;;8.35;3.05;;;;;;;;;;5054082;28;20024;-77
2023/07/25 06:31:03;;;;;;;7.60;3.42;;;;;;;;;;5075104;28;20032;-77
2023/07/25 06:33:28;;;;;;;5.15;3.08;;;;;;;;;;5058493;28;20020;-77
2023/07/25 06:35:54;;;;;;;6.15;2.88;;;;;;;;;;5094069;28;20131;-79
2023/07/25 06:38:19;;;;;;;11.48;2.90;;;;;;;;;;5095182;28;20035;-78
2023/07/25 06:40:44;;;;;;;5.65;2.58;;;;;;;;;;5094721;28;20024;-79
2023/07/25 06:43:10;;;;;;;5.32;2.33;;;;;;;;;;5094984;28;20024;-79
2023/07/25 06:45:35;;;;;;;5.82;2.95;;;;;;;;;;5076940;28;20028;-78
2023/07/25 06:48:00;;;;;;;10.45;3.33;;;;;;;;;;5094031;28;20080;-79
2023/07/25 06:50:25;;;;;;;10.25;3.10;;;;;;;;;;5077044;28;20036;-79
2023/07/25 06:52:51;;;;;;;8.35;2.85;;;;;;;;;;5093956;28;20499;-78
2023/07/25 06:55:19;;;;;;;5.93;2.97;;;;;;;;;;5059003;28;20455;-78
2023/07/25 06:57:44;;;;;;;6.63;2.97;;;;;;;;;;5077042;28;20036;-78
2023/07/25 07:00:10;;;;;;;6.43;3.92;;;;;;;;;;5076332;28;20108;-78
2023/07/25 07:02:35;;;;;;;5.70;2.83;;;;;;;;;;5094775;28;20085;-79
2023/07/25 07:05:01;;;;;;;6.03;2.35;;;;;;;;;;5075887;28;20028;-78
2023/07/25 07:07:26;;;;;;;6.28;2.40;;;;;;;;;;5076266;28;20016;-78
2023/07/25 07:09:51;;;;;;;6.65;3.28;;;;;;;;;;5094668;28;20028;-79
2023/07/25 07:12:17;;;;;;;5.07;2.92;;;;;;;;;;5076060;28;20027;-79
2023/07/25 07:14:42;;;;;;;6.65;2.60;;;;;;;;;;5076507;28;20052;-79
2023/07/25 07:17:07;;;;;;;7.80;2.60;;;;;;;;;;5094480;28;20073;-79
2023/07/25 07:19:32;;;;;;;9.40;2.50;;;;;;;;;;5077121;28;20027;-78
2023/07/25 07:21:58;;;;;;;13.25;3.72;;;;;;;;;;5076631;28;20024;-78
2023/07/25 07:24:23;;;;;;;5.75;2.38;;;;;;;;;;5059991;28;20052;-79
2023/07/25 07:26:48;;;;;;;5.22;2.92;;;;;;;;;;5075877;28;20020;-78
2023/07/25 07:29:14;;;;;;;6.68;3.17;;;;;;;;;;5094278;28;20481;-78
2023/07/25 07:31:39;;;;;;;5.80;2.42;;;;;;;;;;5094283;28;20024;-79
2023/07/25 07:34:15;;;;;;;7.38;2.72;;;;;;;;;;5072318;28;20390;-78
2023/07/25 07:36:41;;;;;;;5.47;2.67;;;;;;;;;;5058724;28;20020;-78
2023/07/25 07:39:07;;;;;;;9.90;2.80;;;;;;;;;;5076368;28;20508;-79
2023/07/25 07:41:34;;;;;;;8.20;2.60;;;;;;;;;;5063769;28;20112;-78
2023/07/25 07:43:59;;;;;;;7.22;3.13;;;;;;;;;;5058153;28;20366;-78
2023/07/25 07:46:28;;;;;;;7.70;2.53;;;;;;;;;;5059936;28;20074;-78
2023/07/25 07:48:53;;;;;;;11.02;2.67;;;;;;;;;;5076501;28;20024;-78
2023/07/25 07:51:18;;;;;;;7.07;2.40;;;;;;;;;;5060064;28;20535;-78
2023/07/25 07:53:44;;;;;;;7.40;2.60;;;;;;;;;;5059947;28;20043;-77
2023/07/25 07:56:10;;;;;;;7.63;2.30;;;;;;;;;;5077586;28;20021;-78
2023/07/25 07:58:36;;;;;;;6.55;2.50;;;;;;;;;;5069332;28;20031;-77
2023/07/25 08:01:01;;;;;;;8.38;2.83;;;;;;;;;;5097643;28;20077;-78
2023/07/25 08:03:26;;;;;;;6.43;2.30;;;;;;;;;;5079588;28;20474;-78
2023/07/25 08:05:57;;;;;;;5.85;2.45;;;;;;;;;;5062982;28;20043;-77
2023/07/25 08:08:23;;;;;;;4.50;2.28;;;;;;;;;;5079343;28;20051;-78
2023/07/25 08:10:48;;;;;;;7.13;2.20;;;;;;;;;;5065916;28;20028;-78
2023/07/25 08:13:15;;;;;;;6.60;2.95;;;;;;;;;;5063997;28;20040;-77
2023/07/25 08:15:40;;;;;;;5.18;2.78;;;;;;;;;;5078620;28;20493;-77
2023/07/25 08:18:07;;;;;;;5.22;2.17;;;;;;;;;;5078894;28;20027;-77
2023/07/25 08:20:32;;;;;;;5.80;2.25;;;;;;;;;;5097719;28;20024;-78
2023/07/25 08:22:57;;;;;;;6.35;2.28;;;;;;;;;;5062564;28;20020;-77
2023/07/25 08:25:23;;;;;;;3.58;2.35;;;;;;;;;;5097678;28;20016;-78
2023/07/25 08:27:48;;;;;;;6.40;2.55;;;;;;;;;;5079059;28;20043;-78
2023/07/25 08:30:14;;;;;;;7.70;2.35;;;;;;;;;;5099282;28;20036;-77
2023/07/25 08:32:39;;;;;;;10.18;2.30;;;;;;;;;;5080425;28;20029;-77
2023/07/25 08:35:04;;;;;;;6.28;1.90;;;;;;;;;;5099825;28;20447;-77
2023/07/25 08:37:30;;;;;;;6.50;1.90;;;;;;;;;;5081605;28;20443;-78
2023/07/25 08:39:55;;;;;;;4.07;1.83;;;;;;;;;;5065185;28;20028;-78
2023/07/25 08:42:23;;;;;;;3.28;1.63;;;;;;;;;;5081335;28;20048;-77
2023/07/25 08:44:51;;;;;;;4.35;2.28;;;;;;;;;;5083104;28;20073;-79
2023/07/25 08:47:21;;;;;;;7.70;2.22;;;;;;;;;;5084708;28;20027;-78
2023/07/25 08:49:50;;;;;;;4.70;1.80;;;;;;;;;;5068204;28;20034;-79
2023/07/25 08:52:19;;;;;;;5.72;1.63;;;;;;;;;;5081720;28;20030;-77
2023/07/25 08:54:46;;;;;;;5.45;1.90;;;;;;;;;;5061374;28;20153;-78
2023/07/25 08:57:12;;;;;;;4.50;1.85;;;;;;;;;;5078730;28;20202;-77
2023/07/25 08:59:37;;;;;;;4.28;2.00;;;;;;;;;;5079089;28;20047;-76
2023/07/25 09:02:03;;;;;;;3.97;1.90;;;;;;;;;;5079073;28;20020;-77
2023/07/25 09:04:28;;;;;;;5.18;2.13;;;;;;;;;;5079088;28;20119;-77
2023/07/25 09:06:54;;;;;;;4.30;1.90;;;;;;;;;;5079146;28;20028;-77
2023/07/25 09:09:19;;;;;;;8.30;2.17;;;;;;;;;;5062041;28;20070;-77
2023/07/25 09:11:45;;;;;;;7.28;2.03;;;;;;;;;;5078855;28;20103;-77
2023/07/25 09:14:11;;;;;;;4.18;1.98;;;;;;;;;;5081577;28;20366;-78
2023/07/25 09:16:36;;;;;;;4.63;1.83;;;;;;;;;;5079787;28;20107;-77
2023/07/25 09:19:02;;;;;;;3.78;2.05;;;;;;;;;;5077961;28;20066;-77
2023/07/25 09:21:27;;;;;;;5.43;1.92;;;;;;;;;;5079073;28;20043;-78
2023/07/25 09:23:57;;;;;;;4.97;2.22;;;;;;;;;;5080369;28;20049;-77
2023/07/25 09:26:29;;;;;;;5.07;1.70;;;;;;;;;;5078748;28;20031;-77
2023/07/25 09:28:59;;;;;;;2.53;1.75;;;;;;;;;;5079432;28;20031;-77
2023/07/25 09:31:26;;;;;;;4.53;1.80;;;;;;;;;;5096499;28;20020;-77
2023/07/25 09:33:53;;;;;;;3.75;1.70;;;;;;;;;;5078682;28;20051;-78
2023/07/25 09:36:18;;;;;;;5.43;2.15;;;;;;;;;;5079258;28;20081;-77
2023/07/25 09:38:52;;;;;;;9.02;2.03;;;;;;;;;;5078731;28;20036;-77
2023/07/25 09:41:19;;;;;;;5.90;2.45;;;;;;;;;;5078971;28;20020;-78
2023/07/25 09:43:44;;;;;;;2.97;1.73;;;;;;;;;;5078990;28;20059;-77
2023/07/25 09:46:10;;;;;;;7.55;2.03;;;;;;;;;;5078763;28;20016;-78
2023/07/25 09:48:35;;;;;;;5.32;2.03;;;;;;;;;;5096393;28;20028;-77
2023/07/25 09:51:02;;;;;;;4.10;1.83;;;;;;;;;;5110055;22;20113;-75
2023/07/25 09:53:29;;;;;;;4.28;1.83;;;;;;;;;;5094078;28;20115;-74
2023/07/25 09:55:55;;;;;;;8.13;1.92;;;;;;;;;;5075950;28;20024;-74
2023/07/25 09:58:20;;;;;;;7.82;3.03;;;;;;;;;;5078770;28;20090;-74
2023/07/25 10:00:46;;;;;;;7.78;2.25;;;;;;;;;;5072150;28;20078;-72
2023/07/25 10:03:12;;;;;;;7.05;2.25;;;;;;;;;;5038980;28;20032;-72
2023/07/25 10:05:44;;;;;;;6.03;2.40;;;;;;;;;;5068682;28;20107;-71
2023/07/25 10:08:11;;;;;;;5.32;2.13;;;;;;;;;;5075426;28;20028;-72
2023/07/25 10:10:36;;;;;;;5.57;2.10;;;;;;;;;;5055684;28;20025;-74
2023/07/25 10:13:01;;;;;;;4.63;2.00;;;;;;;;;;5072904;28;20034;-74
2023/07/25 10:15:27;;;;;;;3.53;1.73;;;;;;;;;;5055972;28;20032;-74
2023/07/25 10:18:01;;;;;;;3.22;2.00;;;;;;;;;;5073322;28;20038;-74
2023/07/25 10:20:26;;;;;;;7.35;1.90;;;;;;;;;;5055309;28;20134;-73
2023/07/25 10:22:51;;;;;;;6.53;1.92;;;;;;;;;;5079293;28;20107;-73
2023/07/25 10:25:21;;;;;;;4.15;1.88;;;;;;;;;;5081272;28;20489;-73
2023/07/25 10:27:46;;;;;;;5.78;2.13;;;;;;;;;;5081343;28;20093;-74
2023/07/25 10:30:24;;;;;;;6.35;2.35;;;;;;;;;;5075529;28;20473;-73
2023/07/25 10:32:53;;;;;;;5.70;2.42;;;;;;;;;;5080676;28;20728;-73
2023/07/25 10:35:52;;;;;;;4.55;1.77;;;;;;;;;;5067202;28;20031;-73
2023/07/25 10:38:25;;;;;;;4.18;1.83;;;;;;;;;;5063910;28;20028;-73
2023/07/25 10:40:55;;;;;;;3.42;1.77;;;;;;;;;;5065051;28;20481;-73
2023/07/25 10:43:22;;;;;;;5.82;1.52;;;;;;;;;;5078092;28;20028;-73
2023/07/25 10:45:49;;;;;;;4.18;1.80;;;;;;;;;;5054890;28;20028;-73
2023/07/25 10:48:26;;;;;;;9.63;2.22;;;;;;;;;;5068337;28;20023;-73
2023/07/25 10:50:53;;;;;;;3.28;1.92;;;;;;;;;;5081740;28;20536;-73
2023/07/25 10:53:22;;;;;;;4.45;1.80;;;;;;;;;;5063158;28;20397;-74
2023/07/25 10:56:03;;;;;;;4.40;1.73;;;;;;;;;;5083192;28;20016;-74
2023/07/25 10:58:28;;;;;;;8.55;1.77;;;;;;;;;;5075373;28;20033;-73
2023/07/25 11:00:53;;;;;;;7.18;1.83;;;;;;;;;;5079196;28;20024;-73
2023/07/25 11:03:29;;;;;;;8.75;1.92;;;;;;;;;;5082687;28;20124;-74
2023/07/25 11:06:15;;;;;;;3.50;1.67;;;;;;;;;;5074767;28;20043;-74
2023/07/25 11:08:41;;;;;;;5.22;1.75;;;;;;;;;;5057504;28;20180;-71
2023/07/25 11:11:09;;;;;;;5.40;1.98;;;;;;;;;;5074718;28;20055;-72
2023/07/25 11:13:35;;;;;;;5.32;1.63;;;;;;;;;;5092727;28;20024;-71
2023/07/25 11:16:01;;;;;;;4.53;1.80;;;;;;;;;;5074372;28;20023;-73
2023/07/25 11:18:26;;;;;;;8.57;2.88;;;;;;;;;;5076565;28;20478;-74
2023/07/25 11:21:03;;;;;;;5.35;1.83;;;;;;;;;;5096693;28;20362;-74
2023/07/25 11:23:28;;;;;;;3.05;1.67;;;;;;;;;;5078462;28;20024;-73
2023/07/25 11:25:58;;;;;;;5.40;1.80;;;;;;;;;;5078577;28;20393;-74
2023/07/25 11:28:24;;;;;;;4.78;2.00;;;;;;;;;;5096727;28;20107;-73
2023/07/25 11:30:53;;;;;;;5.32;1.98;;;;;;;;;;5078431;28;20020;-73
2023/07/25 11:33:19;;;;;;;6.65;2.10;;;;;;;;;;5096100;28;20104;-74
2023/07/25 11:35:50;;;;;;;5.50;2.15;;;;;;;;;;5078369;28;20028;-73
2023/07/25 11:38:16;;;;;;;;;;;;;;;;;;5079355;28;20020;-74
2023/07/25 11:40:41;;;;;;;7.37;1.80;;;;;;;;;;5096518;28;19961;-73
2023/07/25 11:43:11;;;;;;;5.43;1.63;;;;;;;;;;5078711;28;20274;-74
2023/07/25 11:45:36;;;;;;;4.18;1.35;;;;;;;;;;5077924;28;20077;-75
2023/07/25 11:48:02;;;;;;;3.10;1.27;;;;;;;;;;5078533;28;20024;-74
2023/07/25 11:50:28;;;;;;;3.13;1.52;;;;;;;;;;5078576;28;20098;-74
2023/07/25 11:52:53;;;;;;;3.15;1.45;;;;;;;;;;5078710;28;20495;-73
2023/07/25 11:55:19;;;;;;;5.10;1.90;;;;;;;;;;5078022;28;20366;-73
2023/07/25 11:57:44;;;;;;;2.78;1.55;;;;;;;;;;5078345;28;20028;-73
2023/07/25 12:00:15;;;;;;;2.00;1.13;;;;;;;;;;5096407;28;20542;-74
2023/07/25 12:02:41;;;;;;;3.88;1.40;;;;;;;;;;5096364;28;20020;-74
2023/07/25 12:05:08;;;;;;;5.00;1.05;;;;;;;;;;5096354;28;20035;-74
2023/07/25 12:07:53;;;;;;;5.45;1.50;;;;;;;;;;5077909;28;20024;-74
2023/07/25 12:10:31;;;;;;;4.35;1.55;;;;;;;;;;5077693;28;20027;-74
2023/07/25 12:12:57;;;;;;;2.90;1.35;;;;;;;;;;5061240;28;20481;-74
2023/07/25 12:15:24;;;;;;;4.07;1.75;;;;;;;;;;5095683;28;20032;-74
2023/07/25 12:17:49;;;;;;;4.47;1.83;;;;;;;;;;5077643;28;20042;-74
2023/07/25 12:20:19;;;;;;;5.22;1.50;;;;;;;;;;5077795;28;20019;-74
2023/07/25 12:22:45;;;;;;;7.40;2.03;;;;;;;;;;5077096;28;20115;-74
2023/07/25 12:25:15;;;;;;;5.50;1.83;;;;;;;;;;5077778;28;20070;-74
2023/07/25 12:27:48;;;;;;;4.65;2.42;;;;;;;;;;5077638;28;20024;-74
2023/07/25 12:30:13;;;;;;;2.45;1.40;;;;;;;;;;5095178;28;20023;-74
2023/07/25 12:32:39;;;;;;;3.75;1.88;;;;;;;;;;5094710;28;20388;-74
2023/07/25 12:35:04;;;;;;;4.18;2.00;;;;;;;;;;5076738;28;20039;-74
2023/07/25 12:37:30;;;;;;;5.68;1.63;;;;;;;;;;5095390;28;20023;-74
2023/07/25 12:39:55;;;;;;;3.13;1.38;;;;;;;;;;5090031;28;20017;-74
2023/07/25 12:42:20;;;;;;;4.18;1.55;;;;;;;;;;5075207;28;20427;-74
2023/07/25 12:44:45;;;;;;;2.78;1.83;;;;;;;;;;5076848;28;20026;-74
2023/07/25 12:47:11;;;;;;;6.65;1.75;;;;;;;;;;5095209;28;20024;-74
2023/07/25 12:49:36;;;;;;;5.35;1.63;;;;;;;;;;5074742;28;20028;-74
2023/07/25 12:52:01;;;;;;;8.68;1.48;;;;;;;;;;5056905;28;20032;-73
2023/07/25 12:54:27;;;;;;;4.32;1.38;;;;;;;;;;5075129;28;20095;-74
2023/07/25 12:56:52;;;;;;;5.07;1.70;;;;;;;;;;5088099;28;20020;-74
2023/07/25 12:59:17;;;;;;;6.05;1.67;;;;;;;;;;5075136;28;20039;-74
2023/07/25 13:01:42;;;;;;;7.07;2.33;;;;;;;;;;5074625;28;20158;-73
2023/07/25 13:04:08;;;;;;;5.78;2.00;;;;;;;;;;5057091;28;20066;-74
2023/07/25 13:06:34;;;;;;;5.57;1.70;;;;;;;;;;5056749;28;20031;-74
2023/07/25 13:09:00;;;;;;;6.63;2.10;;;;;;;;;;5084058;28;20028;-73
2023/07/25 13:11:25;;;;;;;3.30;1.55;;;;;;;;;;5094883;28;20038;-74
2023/07/25 13:13:51;;;;;;;3.72;1.63;;;;;;;;;;5093458;28;20032;-74
2023/07/25 13:16:16;;;;;;;6.18;1.70;;;;;;;;;;5093739;28;20020;-74
2023/07/25 13:18:41;;;;;;;4.78;1.92;;;;;;;;;;5076261;28;20038;-74
2023/07/25 13:21:07;;;;;;;3.72;1.58;;;;;;;;;;5089248;28;20370;-74
2023/07/25 13:23:32;;;;;;;3.50;1.52;;;;;;;;;;5056218;28;20059;-74
2023/07/25 13:25:57;;;;;;;5.18;2.03;;;;;;;;;;5074185;28;20478;-74
2023/07/25 13:28:23;;;;;;;12.75;2.00;;;;;;;;;;5074391;28;20059;-74
2023/07/25 13:30:48;;;;;;;6.45;2.20;;;;;;;;;;5055450;28;20031;-74
2023/07/25 13:33:13;;;;;;;4.45;1.77;;;;;;;;;;5090204;28;20020;-74
2023/07/25 13:35:39;;;;;;;3.90;1.58;;;;;;;;;;5076116;28;20024;-75
2023/07/25 13:38:04;;;;;;;3.65;1.88;;;;;;;;;;5094433;28;20059;-74
2023/07/25 13:40:29;;;;;;;4.97;1.90;;;;;;;;;;5093188;28;20024;-75
2023/07/25 13:42:54;;;;;;;3.25;1.58;;;;;;;;;;5075942;28;20491;-75
2023/07/25 13:45:20;;;;;;;4.70;2.17;;;;;;;;;;5094180;28;20030;-75
2023/07/25 13:47:46;;;;;;;5.80;1.83;;;;;;;;;;5094257;28;20099;-74
2023/07/25 13:50:11;;;;;;;6.32;1.90;;;;;;;;;;5075783;28;20443;-75
2023/07/25 13:52:36;;;;;;;5.18;1.65;;;;;;;;;;5093756;28;20375;-75
2023/07/25 13:55:02;;;;;;;5.97;2.10;;;;;;;;;;5093810;28;20028;-75
2023/07/25 13:57:27;;;;;;;4.07;1.77;;;;;;;;;;5093740;28;20099;-75
2023/07/25 13:59:52;;;;;;;5.10;1.67;;;;;;;;;;5046300;28;20025;-75
2023/07/25 14:02:18;;;;;;;4.60;1.73;;;;;;;;;;5073435;28;20466;-76
2023/07/25 14:04:43;;;;;;;5.90;2.22;;;;;;;;;;5073417;28;20386;-75
2023/07/25 14:07:08;;;;;;;5.32;1.50;;;;;;;;;;5073175;28;20056;-75
2023/07/25 14:09:34;;;;;;;3.10;1.52;;;;;;;;;;5055510;28;20044;-75
2023/07/25 14:11:59;;;;;;;4.22;1.70;;;;;;;;;;5089367;28;20020;-75
2023/07/25 14:14:24;;;;;;;2.92;1.58;;;;;;;;;;5093651;28;20107;-74
2023/07/25 14:16:50;;;;;;;4.35;1.40;;;;;;;;;;5093505;28;20074;-74
2023/07/25 14:19:16;;;;;;;4.10;1.88;;;;;;;;;;5075730;28;20024;-74
2023/07/25 14:21:41;;;;;;;3.55;1.40;;;;;;;;;;5092676;28;20035;-73
2023/07/25 14:24:07;;;;;;;3.17;1.45;;;;;;;;;;5093687;28;20526;-73
2023/07/25 14:26:32;;;;;;;4.53;1.65;;;;;;;;;;5075372;28;20495;-73
2023/07/25 14:28:58;;;;;;;4.80;1.98;;;;;;;;;;5075443;28;20508;-73
2023/07/25 14:31:24;;;;;;;7.80;2.80;;;;;;;;;;5093250;28;20055;-73
2023/07/25 14:33:49;;;;;;;2.65;1.65;;;;;;;;;;5094019;28;20024;-73